Erie International Tom Ridge Field Erie US
ICAO: KERI
IATA: ERI
Category: Large
Scheduled Services: Yes

Elevation: 732 ft
TransAlt. 18000 ft.

Airport Communications:
APP/DEP:121
ATIS:120.35
CLNC DEL:126.8
CTAF:118.1
GND:121.9
ALTOONA RDO:109.4
TWR:118.1
UNICOM:122.95

KERI Zoom In..

Runways:

(A) RW 02 length 3508 ft width 150 ft
---- / hdg 20

(B) RW 06 length 8420 ft width 150 ft
ILS 110.30 / hdg 64

(C) RW 20 length 3508 ft width 150 ft
---- / hdg 200

(D) RW 24 length 8420 ft width 150 ft
ILS 110.30 / hdg 244

Location; KERI
Day. 21 / Time. 05.51 Zulu
* Altimeter: 29.82
* Temperature: 24° c. 75.2°f.
* Wind from: 150° Speed 15 kn with Gusts up to 25 kn.
Dewpoint: 16° c.
Visibility: 10 Statute Miles.
Clouds: Few 12000 ft.

KERI 210551Z AUTO 15015G25KT 10SM FEW120 24/16 A2982 RMK AO2 PK WND 16031/0539 SLP091 60000 T02440156 10267 20239 58008


Wind From 150°
Speed 15 kn.

 
 
jpsmedia.com for Web Design worldairports.se 2018   terms of use